Terminal Aerodrome Forecast
Issued by NWS

Home | Current Version | Previous Version | Text Only | Print | Product List | Glossary On
Versions: 1 2 3 4 5 6 7 8 9 10 11 12 13 14 15 16 17 18 19 20 21 22 23 24 25 26 27 28 29 30 31
000
FTUS41 KBOX 272325
TAFACK
TAF
KACK 272325Z 2800/2824 32029G46KT 1/2SM SHSN BLSN OVC002
     FM280500 32021G35KT 2SM -SHSN OVC008
     FM280700 32019G33KT 4SM -SHSN OVC012
     FM280900 32017G29KT P6SM OVC015
     FM281500 32014G23KT P6SM OVC025
     FM281900 33013KT P6SM OVC035=

USA.gov is the U.S. government's official web portal to all federal, state and local government web resources and services.